Time;durP1;ratioP1;P1;durP2;ratioP2;P2;SDS_P1;SDS_P2;PMS_P1;PMS_P2;Temp;Humidity;BMP_temperature;BMP_pressure;BME280_temperature;BME280_humidity;BME280_pressure;Samples;Min_cycle;Max_cycle;Signal;HPM_P1;HPM_P2
2023/09/18 00:02:07;;;;;;;0.10;0.10;;;;;;;;;;6273660;28;20075;-85
2023/09/18 00:05:08;;;;;;;0.10;0.10;;;;;;;;;;6268116;28;20029;-85
2023/09/18 00:08:08;;;;;;;0.10;0.10;;;;;;;;;;6281436;28;20098;-85
2023/09/18 00:11:11;;;;;;;0.10;0.10;;;;;;;;;;6294405;28;20012;-85
2023/09/18 00:14:12;;;;;;;0.10;0.10;;;;;;;;;;6292422;28;20048;-85
2023/09/18 00:17:13;;;;;;;0.10;0.10;;;;;;;;;;6288628;28;20024;-85
2023/09/18 00:20:16;;;;;;;0.10;0.10;;;;;;;;;;6300411;28;20103;-85
2023/09/18 00:23:16;;;;;;;0.10;0.10;;;;;;;;;;6288563;28;20083;-85
2023/09/18 00:26:17;;;;;;;0.10;0.10;;;;;;;;;;6272245;28;20474;-85
2023/09/18 00:29:17;;;;;;;0.10;0.10;;;;;;;;;;6271998;28;20033;-85
2023/09/18 00:32:17;;;;;;;0.10;0.10;;;;;;;;;;6287537;28;20036;-85
2023/09/18 00:35:17;;;;;;;0.10;0.10;;;;;;;;;;6267707;28;20028;-85
2023/09/18 00:38:19;;;;;;;0.10;0.10;;;;;;;;;;6295720;28;20059;-83
2023/09/18 00:41:19;;;;;;;0.10;0.10;;;;;;;;;;6282454;28;20440;-84
2023/09/18 00:44:20;;;;;;;0.10;0.10;;;;;;;;;;6298130;28;20024;-84
2023/09/18 00:47:20;;;;;;;0.10;0.10;;;;;;;;;;6275839;28;20608;-84
2023/09/18 00:50:21;;;;;;;0.10;0.10;;;;;;;;;;6286176;28;20016;-84
2023/09/18 00:53:23;;;;;;;0.10;0.10;;;;;;;;;;6275257;28;20013;-83
2023/09/18 00:56:23;;;;;;;0.10;0.10;;;;;;;;;;6269526;28;20023;-84
2023/09/18 00:59:23;;;;;;;0.10;0.10;;;;;;;;;;6289960;28;20020;-84
2023/09/18 01:02:24;;;;;;;0.10;0.10;;;;;;;;;;6295540;28;20620;-84
2023/09/18 01:05:24;;;;;;;0.10;0.10;;;;;;;;;;6286516;28;20462;-84
2023/09/18 01:08:25;;;;;;;0.10;0.10;;;;;;;;;;6232052;28;20121;-84
2023/09/18 01:11:34;;;;;;;0.17;0.17;;;;;;;;;;6258248;28;20398;-84
2023/09/18 01:14:42;;;;;;;0.10;0.10;;;;;;;;;;6266629;28;20029;-84
2023/09/18 01:17:43;;;;;;;0.10;0.10;;;;;;;;;;6258982;28;20017;-83
2023/09/18 01:20:44;;;;;;;;;;;;;;;;;;6267060;28;20467;-83
2023/09/18 01:23:45;;;;;;;0.10;0.10;;;;;;;;;;6263673;28;19964;-83
2023/09/18 01:26:46;;;;;;;0.10;0.10;;;;;;;;;;6259972;28;20023;-83
2023/09/18 01:29:47;;;;;;;0.10;0.10;;;;;;;;;;6247498;28;20031;-83
2023/09/18 01:32:49;;;;;;;0.10;0.10;;;;;;;;;;6246854;28;20029;-83
2023/09/18 01:35:51;;;;;;;0.10;0.10;;;;;;;;;;6253012;28;20359;-82
2023/09/18 01:38:52;;;;;;;0.10;0.10;;;;;;;;;;6265400;28;20434;-83
2023/09/18 01:41:53;;;;;;;0.10;0.10;;;;;;;;;;6257017;28;20041;-83
2023/09/18 01:44:54;;;;;;;0.10;0.10;;;;;;;;;;6269666;28;20033;-83
2023/09/18 01:47:54;;;;;;;0.10;0.10;;;;;;;;;;6281635;28;20036;-83
2023/09/18 01:50:54;;;;;;;0.13;0.13;;;;;;;;;;6247431;28;20036;-83
2023/09/18 01:53:56;;;;;;;0.10;0.10;;;;;;;;;;6270058;28;20087;-84
2023/09/18 01:56:56;;;;;;;0.10;0.10;;;;;;;;;;6232984;28;20025;-83
2023/09/18 01:59:56;;;;;;;0.10;0.10;;;;;;;;;;6263361;28;20027;-83
2023/09/18 02:02:56;;;;;;;0.10;0.10;;;;;;;;;;6246546;28;20511;-83
2023/09/18 02:05:56;;;;;;;0.10;0.10;;;;;;;;;;6258211;28;20488;-84
2023/09/18 02:08:57;;;;;;;0.10;0.10;;;;;;;;;;6302406;28;20078;-83
2023/09/18 02:11:57;;;;;;;0.10;0.10;;;;;;;;;;6287539;28;20029;-83
2023/09/18 02:14:58;;;;;;;0.10;0.10;;;;;;;;;;6286292;28;20023;-84
2023/09/18 02:17:58;;;;;;;0.10;0.10;;;;;;;;;;6295592;28;20024;-83
2023/09/18 02:20:58;;;;;;;0.10;0.10;;;;;;;;;;6289715;28;20475;-83
2023/09/18 02:23:59;;;;;;;0.10;0.10;;;;;;;;;;6289258;28;20024;-83
2023/09/18 02:26:59;;;;;;;0.10;0.10;;;;;;;;;;6276025;28;20030;-83
2023/09/18 02:30:01;;;;;;;0.10;0.10;;;;;;;;;;6285166;28;20021;-84
2023/09/18 02:33:03;;;;;;;0.10;0.10;;;;;;;;;;6272759;28;20031;-83
2023/09/18 02:36:03;;;;;;;0.10;0.10;;;;;;;;;;6304657;28;20042;-85
2023/09/18 02:39:04;;;;;;;0.10;0.10;;;;;;;;;;6294409;28;20028;-84
2023/09/18 02:42:04;;;;;;;0.10;0.10;;;;;;;;;;6304472;28;20031;-84
2023/09/18 02:45:05;;;;;;;0.10;0.10;;;;;;;;;;6290781;28;20029;-85
2023/09/18 02:48:05;;;;;;;0.10;0.10;;;;;;;;;;6283820;28;20028;-84
2023/09/18 02:51:05;;;;;;;0.10;0.10;;;;;;;;;;6290015;28;20029;-84
2023/09/18 02:54:06;;;;;;;0.10;0.10;;;;;;;;;;6286536;28;20024;-85
2023/09/18 02:57:06;;;;;;;0.10;0.10;;;;;;;;;;6292165;28;20029;-84
2023/09/18 03:00:07;;;;;;;0.10;0.10;;;;;;;;;;6298336;28;20305;-84
2023/09/18 03:03:07;;;;;;;0.10;0.10;;;;;;;;;;6281219;28;20040;-83
2023/09/18 03:06:07;;;;;;;0.10;0.10;;;;;;;;;;6276473;28;20131;-84
2023/09/18 03:09:07;;;;;;;0.10;0.10;;;;;;;;;;6293968;28;20072;-85
2023/09/18 03:12:08;;;;;;;0.10;0.10;;;;;;;;;;6294250;28;20021;-83
2023/09/18 03:15:11;;;;;;;0.10;0.10;;;;;;;;;;6276136;28;20032;-84
2023/09/18 03:18:11;;;;;;;0.10;0.10;;;;;;;;;;6289342;28;20478;-84
2023/09/18 03:21:11;;;;;;;0.10;0.10;;;;;;;;;;6274204;28;20031;-84
2023/09/18 03:24:12;;;;;;;0.10;0.10;;;;;;;;;;6270896;28;20029;-83
2023/09/18 03:27:12;;;;;;;0.10;0.10;;;;;;;;;;6310138;28;20054;-84
2023/09/18 03:30:15;;;;;;;0.10;0.10;;;;;;;;;;6277558;28;20032;-84
2023/09/18 03:33:15;;;;;;;0.10;0.10;;;;;;;;;;6275541;28;20024;-84
2023/09/18 03:36:17;;;;;;;0.10;0.10;;;;;;;;;;6285111;28;20024;-84
2023/09/18 03:39:17;;;;;;;0.10;0.10;;;;;;;;;;6290341;28;20024;-84
2023/09/18 03:42:17;;;;;;;0.10;0.10;;;;;;;;;;6300042;28;20115;-84
2023/09/18 03:45:19;;;;;;;0.10;0.10;;;;;;;;;;6292199;28;20460;-84
2023/09/18 03:48:20;;;;;;;;;;;;;;;;;;6309500;28;20390;-84
2023/09/18 03:51:20;;;;;;;0.10;0.10;;;;;;;;;;6278211;28;19915;-84
2023/09/18 03:54:20;;;;;;;0.10;0.10;;;;;;;;;;6294934;28;20031;-84
2023/09/18 03:57:20;;;;;;;0.10;0.10;;;;;;;;;;6290979;28;20012;-84
2023/09/18 04:00:21;;;;;;;0.10;0.10;;;;;;;;;;6299438;28;20023;-85
2023/09/18 04:03:21;;;;;;;0.10;0.10;;;;;;;;;;6280730;28;20043;-84
2023/09/18 04:06:24;;;;;;;0.10;0.10;;;;;;;;;;6269224;28;20124;-85
2023/09/18 04:09:24;;;;;;;0.10;0.10;;;;;;;;;;6274848;28;20063;-85
2023/09/18 04:12:25;;;;;;;0.10;0.10;;;;;;;;;;6291652;28;20077;-85
2023/09/18 04:15:25;;;;;;;0.10;0.10;;;;;;;;;;6283153;28;20017;-85
2023/09/18 04:18:25;;;;;;;0.10;0.10;;;;;;;;;;6279725;28;20071;-85
2023/09/18 04:21:26;;;;;;;0.10;0.10;;;;;;;;;;6280906;28;20493;-85
2023/09/18 04:24:26;;;;;;;0.10;0.10;;;;;;;;;;6277337;28;20045;-85
2023/09/18 04:27:26;;;;;;;0.10;0.10;;;;;;;;;;6298468;28;20515;-85
2023/09/18 04:30:26;;;;;;;0.10;0.10;;;;;;;;;;6271896;28;20157;-85
2023/09/18 04:33:28;;;;;;;0.10;0.10;;;;;;;;;;6292468;28;20028;-85
2023/09/18 04:36:29;;;;;;;0.10;0.10;;;;;;;;;;6264411;28;20021;-85
2023/09/18 04:39:30;;;;;;;0.10;0.10;;;;;;;;;;6285918;28;20039;-86
2023/09/18 04:42:30;;;;;;;0.10;0.10;;;;;;;;;;6290667;28;20486;-86
2023/09/18 04:45:32;;;;;;;0.10;0.10;;;;;;;;;;6296530;28;20031;-85
2023/09/18 04:48:32;;;;;;;0.10;0.10;;;;;;;;;;6275301;28;20028;-85
2023/09/18 04:51:33;;;;;;;0.10;0.10;;;;;;;;;;6273335;28;20111;-85
2023/09/18 04:54:33;;;;;;;0.10;0.10;;;;;;;;;;6294350;28;20064;-85
2023/09/18 04:57:33;;;;;;;0.10;0.10;;;;;;;;;;6283286;28;20374;-85
2023/09/18 05:00:34;;;;;;;0.10;0.10;;;;;;;;;;6291214;28;20470;-85
2023/09/18 05:03:34;;;;;;;0.10;0.10;;;;;;;;;;6290601;28;20021;-85
2023/09/18 05:06:35;;;;;;;0.10;0.10;;;;;;;;;;6304681;28;20078;-85
2023/09/18 05:09:35;;;;;;;0.10;0.10;;;;;;;;;;6280090;28;20056;-85
2023/09/18 05:12:35;;;;;;;0.10;0.10;;;;;;;;;;6300267;28;20005;-85
2023/09/18 05:15:37;;;;;;;0.10;0.10;;;;;;;;;;6285557;28;20759;-85
2023/09/18 05:18:37;;;;;;;0.10;0.10;;;;;;;;;;6282102;28;20576;-85
2023/09/18 05:21:39;;;;;;;0.10;0.10;;;;;;;;;;6293809;28;20443;-85
2023/09/18 05:24:40;;;;;;;0.10;0.10;;;;;;;;;;6304918;28;20024;-84
2023/09/18 05:27:43;;;;;;;0.10;0.10;;;;;;;;;;6269321;28;20063;-84
2023/09/18 05:30:44;;;;;;;0.10;0.10;;;;;;;;;;6276913;28;20027;-84
2023/09/18 05:33:44;;;;;;;0.10;0.10;;;;;;;;;;6297597;28;20016;-84
2023/09/18 05:36:45;;;;;;;0.10;0.10;;;;;;;;;;6274411;28;20059;-85
2023/09/18 05:39:45;;;;;;;0.10;0.10;;;;;;;;;;6301127;28;20595;-84
2023/09/18 05:42:45;;;;;;;0.10;0.10;;;;;;;;;;6297960;28;20051;-85
2023/09/18 05:45:46;;;;;;;0.10;0.10;;;;;;;;;;6297083;28;20028;-83
2023/09/18 05:48:46;;;;;;;0.00;0.00;;;;;;;;;;6288689;28;20062;-83
2023/09/18 05:51:48;;;;;;;0.10;0.10;;;;;;;;;;6286864;28;20035;-83
2023/09/18 05:54:49;;;;;;;0.00;0.00;;;;;;;;;;6279193;28;20016;-83
2023/09/18 05:57:49;;;;;;;0.10;0.10;;;;;;;;;;6303401;28;20138;-83
2023/09/18 06:00:49;;;;;;;0.00;0.00;;;;;;;;;;6274937;28;20429;-83
2023/09/18 06:03:50;;;;;;;0.00;0.00;;;;;;;;;;6276736;28;20082;-84
2023/09/18 06:06:51;;;;;;;0.00;0.00;;;;;;;;;;6297815;28;20074;-84
2023/09/18 06:09:51;;;;;;;0.00;0.00;;;;;;;;;;6279434;28;20038;-83
2023/09/18 06:12:51;;;;;;;0.00;0.00;;;;;;;;;;6290845;28;20734;-83
2023/09/18 06:15:54;;;;;;;0.00;0.00;;;;;;;;;;6289925;28;20386;-84
2023/09/18 06:18:55;;;;;;;0.00;0.00;;;;;;;;;;6289610;28;20869;-84
2023/09/18 06:21:56;;;;;;;0.00;0.00;;;;;;;;;;6271057;28;20032;-84
2023/09/18 06:24:56;;;;;;;0.00;0.00;;;;;;;;;;6275900;28;20046;-84
2023/09/18 06:27:56;;;;;;;0.00;0.00;;;;;;;;;;6290797;28;20047;-84
2023/09/18 06:30:57;;;;;;;0.00;0.00;;;;;;;;;;6267562;28;20127;-85
2023/09/18 06:33:57;;;;;;;0.00;0.00;;;;;;;;;;6301062;28;20520;-84
2023/09/18 06:36:57;;;;;;;0.00;0.00;;;;;;;;;;6286317;28;20436;-84
2023/09/18 06:39:57;;;;;;;0.00;0.00;;;;;;;;;;6271372;28;20032;-84
2023/09/18 06:42:58;;;;;;;0.00;0.00;;;;;;;;;;6267778;28;20134;-84
2023/09/18 06:45:58;;;;;;;0.10;0.10;;;;;;;;;;6295312;28;20035;-85
2023/09/18 06:49:00;;;;;;;0.00;0.00;;;;;;;;;;6294662;28;20021;-84
2023/09/18 06:52:01;;;;;;;0.00;0.00;;;;;;;;;;6282947;28;20024;-85
2023/09/18 06:55:01;;;;;;;0.00;0.00;;;;;;;;;;6291978;28;20020;-84
2023/09/18 06:58:01;;;;;;;0.00;0.00;;;;;;;;;;6287738;28;20130;-85
2023/09/18 07:01:01;;;;;;;0.00;0.00;;;;;;;;;;6284362;28;20025;-85
2023/09/18 07:04:04;;;;;;;0.00;0.00;;;;;;;;;;6290136;28;20101;-84
2023/09/18 07:07:04;;;;;;;0.00;0.00;;;;;;;;;;6272327;28;20048;-84
2023/09/18 07:10:04;;;;;;;0.00;0.00;;;;;;;;;;6296998;28;20063;-83
2023/09/18 07:13:05;;;;;;;0.00;0.00;;;;;;;;;;6270498;28;20493;-85
2023/09/18 07:16:05;;;;;;;0.00;0.00;;;;;;;;;;6276417;28;20547;-84
2023/09/18 07:19:06;;;;;;;0.00;0.00;;;;;;;;;;6276268;28;20032;-85
2023/09/18 07:22:06;;;;;;;0.00;0.00;;;;;;;;;;6270135;28;20021;-85
2023/09/18 07:25:07;;;;;;;0.00;0.00;;;;;;;;;;6294728;28;20017;-85
2023/09/18 07:28:08;;;;;;;0.00;0.00;;;;;;;;;;6289825;28;20037;-83
2023/09/18 07:31:09;;;;;;;0.00;0.00;;;;;;;;;;6270631;28;20017;-84
2023/09/18 07:34:09;;;;;;;0.00;0.00;;;;;;;;;;6293823;28;20539;-84
2023/09/18 07:37:09;;;;;;;0.00;0.00;;;;;;;;;;6268828;28;20107;-84
2023/09/18 07:40:10;;;;;;;0.00;0.00;;;;;;;;;;6298797;28;20036;-85
2023/09/18 07:43:11;;;;;;;0.00;0.00;;;;;;;;;;6271291;28;20024;-85
2023/09/18 07:46:11;;;;;;;0.00;0.00;;;;;;;;;;6284934;28;20023;-84
2023/09/18 07:49:12;;;;;;;0.00;0.00;;;;;;;;;;6270209;28;20848;-85
2023/09/18 07:52:13;;;;;;;0.00;0.00;;;;;;;;;;6288924;28;20031;-85
2023/09/18 07:55:13;;;;;;;0.00;0.00;;;;;;;;;;6289680;28;20032;-85
2023/09/18 07:58:14;;;;;;;0.00;0.00;;;;;;;;;;6293962;28;20406;-84
2023/09/18 08:01:16;;;;;;;0.00;0.00;;;;;;;;;;6275204;28;20052;-85
2023/09/18 08:04:17;;;;;;;0.00;0.00;;;;;;;;;;6288453;28;20393;-84
2023/09/18 08:07:17;;;;;;;;;;;;;;;;;;6278841;28;20040;-84
2023/09/18 08:10:17;;;;;;;0.00;0.00;;;;;;;;;;6290559;28;19908;-84
2023/09/18 08:13:21;;;;;;;0.00;0.00;;;;;;;;;;6274015;28;20012;-84
2023/09/18 08:16:21;;;;;;;0.00;0.00;;;;;;;;;;6294192;28;20023;-84
2023/09/18 08:19:21;;;;;;;0.00;0.00;;;;;;;;;;6290120;28;20103;-84
2023/09/18 08:22:21;;;;;;;0.00;0.00;;;;;;;;;;6291170;28;20031;-84
2023/09/18 08:25:22;;;;;;;0.00;0.00;;;;;;;;;;6292092;28;20039;-84
2023/09/18 08:28:22;;;;;;;0.00;0.00;;;;;;;;;;6295220;28;20091;-83
2023/09/18 08:31:24;;;;;;;0.00;0.00;;;;;;;;;;6265145;28;20036;-84
2023/09/18 08:34:24;;;;;;;;;;;;;;;;;;6272701;28;20021;-84
2023/09/18 08:37:25;;;;;;;0.00;0.00;;;;;;;;;;6294650;28;19913;-84
2023/09/18 08:40:26;;;;;;;0.00;0.00;;;;;;;;;;6291422;28;20433;-84
2023/09/18 08:43:28;;;;;;;0.00;0.00;;;;;;;;;;6295484;28;20046;-85
2023/09/18 08:46:28;;;;;;;0.00;0.00;;;;;;;;;;6291354;28;20565;-85
2023/09/18 08:49:29;;;;;;;0.00;0.00;;;;;;;;;;6286318;28;20021;-84
2023/09/18 08:52:29;;;;;;;0.00;0.00;;;;;;;;;;6261207;28;20502;-85
2023/09/18 08:55:32;;;;;;;0.00;0.00;;;;;;;;;;6291292;28;20023;-85
2023/09/18 08:58:35;;;;;;;0.00;0.00;;;;;;;;;;6285030;28;20017;-83
2023/09/18 09:01:35;;;;;;;0.00;0.00;;;;;;;;;;6251968;28;20035;-85
2023/09/18 09:04:36;;;;;;;0.00;0.00;;;;;;;;;;6288127;28;20483;-85
2023/09/18 09:07:36;;;;;;;0.00;0.00;;;;;;;;;;6276326;28;20533;-84
2023/09/18 09:10:37;;;;;;;0.00;0.00;;;;;;;;;;6303867;28;20529;-85
2023/09/18 09:13:37;;;;;;;0.00;0.00;;;;;;;;;;6289959;28;20518;-85
2023/09/18 09:16:38;;;;;;;0.00;0.00;;;;;;;;;;6295558;28;20024;-85
2023/09/18 09:19:42;;;;;;;0.00;0.00;;;;;;;;;;6301654;28;20036;-85
2023/09/18 09:22:42;;;;;;;0.00;0.00;;;;;;;;;;6288244;28;20394;-84
2023/09/18 09:25:43;;;;;;;0.00;0.00;;;;;;;;;;6286595;28;20046;-85
2023/09/18 09:28:43;;;;;;;;;;;;;;;;;;6274530;28;20094;-83
2023/09/18 09:31:45;;;;;;;0.00;0.00;;;;;;;;;;6289935;28;20431;-83
2023/09/18 09:34:46;;;;;;;0.00;0.00;;;;;;;;;;6281868;28;20016;-84
2023/09/18 09:37:46;;;;;;;0.00;0.00;;;;;;;;;;6288950;28;20568;-83
2023/09/18 09:40:46;;;;;;;;;;;;;;;;;;6267800;28;20016;-84
2023/09/18 09:43:47;;;;;;;0.00;0.00;;;;;;;;;;6306198;28;20338;-85
2023/09/18 09:46:48;;;;;;;0.00;0.00;;;;;;;;;;6290221;28;20028;-85
2023/09/18 09:49:49;;;;;;;0.00;0.00;;;;;;;;;;6286112;28;20043;-85
2023/09/18 09:52:51;;;;;;;0.00;0.00;;;;;;;;;;6271221;28;20024;-84
2023/09/18 09:55:55;;;;;;;0.00;0.00;;;;;;;;;;6292205;28;20104;-85
2023/09/18 09:59:03;;;;;;;0.00;0.00;;;;;;;;;;6270188;28;20785;-85
2023/09/18 10:02:03;;;;;;;0.00;0.00;;;;;;;;;;6275564;28;20017;-85
2023/09/18 10:05:04;;;;;;;;;;;;;;;;;;6272645;28;20450;-85
2023/09/18 10:08:08;;;;;;;0.00;0.00;;;;;;;;;;6309896;28;20386;-83
2023/09/18 10:11:11;;;;;;;0.00;0.00;;;;;;;;;;6270426;28;20029;-85
2023/09/18 10:14:16;;;;;;;0.00;0.00;;;;;;;;;;6292449;28;20039;-84
2023/09/18 10:17:17;;;;;;;0.00;0.00;;;;;;;;;;6270115;28;20108;-85
2023/09/18 10:20:21;;;;;;;0.00;0.00;;;;;;;;;;6268731;28;20502;-84
2023/09/18 10:23:27;;;;;;;0.00;0.00;;;;;;;;;;6292886;28;20067;-84
2023/09/18 10:26:30;;;;;;;0.00;0.00;;;;;;;;;;6293183;28;20064;-84
2023/09/18 10:29:32;;;;;;;0.00;0.00;;;;;;;;;;6273273;28;21916;-85
2023/09/18 10:32:33;;;;;;;0.00;0.00;;;;;;;;;;6274262;28;20029;-83
2023/09/18 10:35:33;;;;;;;;;;;;;;;;;;6293391;28;20567;-85
2023/09/18 10:38:37;;;;;;;0.00;0.00;;;;;;;;;;6295199;28;20281;-83
2023/09/18 10:41:39;;;;;;;0.00;0.00;;;;;;;;;;6290994;28;20513;-83
2023/09/18 10:44:41;;;;;;;0.00;0.00;;;;;;;;;;6278722;28;20030;-83
2023/09/18 10:47:43;;;;;;;0.00;0.00;;;;;;;;;;6295456;28;20021;-84
2023/09/18 10:50:43;;;;;;;0.00;0.00;;;;;;;;;;6278100;28;20471;-84
2023/09/18 10:53:43;;;;;;;;;;;;;;;;;;6283451;28;20036;-85
2023/09/18 10:56:44;;;;;;;0.00;0.00;;;;;;;;;;6290167;28;19908;-84
2023/09/18 10:59:45;;;;;;;;;;;;;;;;;;6286531;28;20495;-84
2023/09/18 11:02:45;;;;;;;0.00;0.00;;;;;;;;;;6273625;28;19951;-84
2023/09/18 11:05:46;;;;;;;;;;;;;;;;;;6277238;28;20021;-85
2023/09/18 11:08:46;;;;;;;0.00;0.00;;;;;;;;;;6297040;28;19999;-84
2023/09/18 11:11:57;;;;;;;0.00;0.00;;;;;;;;;;6302531;28;20074;-84
2023/09/18 11:14:58;;;;;;;0.00;0.00;;;;;;;;;;6281043;28;20105;-84
2023/09/18 11:17:58;;;;;;;;;;;;;;;;;;6285964;28;20021;-84
2023/09/18 11:21:12;;;;;;;0.00;0.00;;;;;;;;;;6285517;28;19912;-84
2023/09/18 11:24:20;;;;;;;0.00;0.00;;;;;;;;;;6293442;28;20031;-84
2023/09/18 11:27:24;;;;;;;0.00;0.00;;;;;;;;;;6304742;28;20754;-84
2023/09/18 11:30:24;;;;;;;0.00;0.00;;;;;;;;;;6290266;28;20048;-84
2023/09/18 11:33:25;;;;;;;;;;;;;;;;;;6265188;28;20610;-85
2023/09/18 11:36:25;;;;;;;0.00;0.00;;;;;;;;;;6276167;28;19919;-85
2023/09/18 11:39:26;;;;;;;;;;;;;;;;;;6267073;28;20114;-85
2023/09/18 11:42:26;;;;;;;0.00;0.00;;;;;;;;;;6283820;28;20021;-85
2023/09/18 11:45:26;;;;;;;;;;;;;;;;;;6293690;28;20032;-84
2023/09/18 11:48:29;;;;;;;0.00;0.00;;;;;;;;;;6299529;28;19919;-85
2023/09/18 11:51:29;;;;;;;0.00;0.00;;;;;;;;;;6286788;28;20475;-84
2023/09/18 11:54:31;;;;;;;;;;;;;;;;;;6288161;28;20032;-85
2023/09/18 11:57:35;;;;;;;0.00;0.00;;;;;;;;;;6282216;28;20370;-84
2023/09/18 12:00:45;;;;;;;0.00;0.00;;;;;;;;;;6293418;28;20103;-85
2023/09/18 12:03:47;;;;;;;0.00;0.00;;;;;;;;;;6284470;28;20139;-85
2023/09/18 12:06:49;;;;;;;0.00;0.00;;;;;;;;;;6291546;28;20045;-85
2023/09/18 12:09:49;;;;;;;0.00;0.00;;;;;;;;;;6294062;28;20032;-84
2023/09/18 12:12:50;;;;;;;0.00;0.00;;;;;;;;;;6292531;28;20055;-83
2023/09/18 12:15:57;;;;;;;0.00;0.00;;;;;;;;;;6274284;28;20341;-84
2023/09/18 12:18:59;;;;;;;0.00;0.00;;;;;;;;;;6289816;28;20032;-84
2023/09/18 12:21:59;;;;;;;0.00;0.00;;;;;;;;;;6279955;28;20025;-84
2023/09/18 12:25:09;;;;;;;0.00;0.00;;;;;;;;;;6291218;28;20565;-84
2023/09/18 12:28:10;;;;;;;0.00;0.00;;;;;;;;;;6288457;28;20270;-87
2023/09/18 12:31:11;;;;;;;0.00;0.00;;;;;;;;;;6271995;28;20024;-88
2023/09/18 12:34:12;;;;;;;;;;;;;;;;;;6296083;28;20008;-90
2023/09/18 12:37:12;;;;;;;0.00;0.00;;;;;;;;;;6293330;28;19904;-88
2023/09/18 12:40:22;;;;;;;0.00;0.00;;;;;;;;;;6289349;28;20727;-87
2023/09/18 12:43:23;;;;;;;0.00;0.00;;;;;;;;;;6288313;28;20048;-87
2023/09/18 12:46:23;;;;;;;0.00;0.00;;;;;;;;;;6283887;28;20017;-87
2023/09/18 12:49:30;;;;;;;0.00;0.00;;;;;;;;;;6268757;28;20008;-87
2023/09/18 12:52:31;;;;;;;0.00;0.00;;;;;;;;;;6287332;28;20017;-87
2023/09/18 12:55:32;;;;;;;0.00;0.00;;;;;;;;;;6304618;28;20064;-88
2023/09/18 12:58:33;;;;;;;0.00;0.00;;;;;;;;;;6299330;28;20031;-87
2023/09/18 13:01:33;;;;;;;;;;;;;;;;;;6286335;28;20032;-87
2023/09/18 13:04:37;;;;;;;0.00;0.00;;;;;;;;;;6285006;28;19908;-88
2023/09/18 13:07:53;;;;;;;0.00;0.00;;;;;;;;;;6284335;28;20127;-87
2023/09/18 13:10:53;;;;;;;0.00;0.00;;;;;;;;;;6276441;28;20024;-87
2023/09/18 13:13:53;;;;;;;;;;;;;;;;;;6293707;28;20769;-88
2023/09/18 13:16:59;;;;;;;0.00;0.00;;;;;;;;;;6296363;28;19923;-89
2023/09/18 13:20:07;;;;;;;0.00;0.00;;;;;;;;;;6280402;28;20055;-89
2023/09/18 13:23:07;;;;;;;0.00;0.00;;;;;;;;;;6274267;28;20024;-88
2023/09/18 13:26:08;;;;;;;;;;;;;;;;;;6309021;28;20592;-83
2023/09/18 13:29:08;;;;;;;0.00;0.00;;;;;;;;;;6297357;28;19919;-83
2023/09/18 13:32:08;;;;;;;;;;;;;;;;;;6298816;28;20024;-84
2023/09/18 13:35:08;;;;;;;0.00;0.00;;;;;;;;;;6274700;28;20362;-84
2023/09/18 13:38:10;;;;;;;;;;;;;;;;;;6296826;28;20062;-85
2023/09/18 13:41:13;;;;;;;;;;;;;;;;;;6272553;28;20420;-85
2023/09/18 13:44:13;;;;;;;0.00;0.00;;;;;;;;;;6295310;28;20437;-84
2023/09/18 13:47:13;;;;;;;;;;;;;;;;;;6294620;28;20032;-84
2023/09/18 13:50:14;;;;;;;0.00;0.00;;;;;;;;;;6291018;28;19959;-83
2023/09/18 13:53:14;;;;;;;0.00;0.00;;;;;;;;;;6271599;28;20023;-84
2023/09/18 13:56:15;;;;;;;0.00;0.00;;;;;;;;;;6295097;28;20013;-84
2023/09/18 13:59:15;;;;;;;0.00;0.00;;;;;;;;;;6282334;28;20179;-84
2023/09/18 14:02:16;;;;;;;0.00;0.00;;;;;;;;;;6297257;28;20266;-83
2023/09/18 14:05:16;;;;;;;0.00;0.00;;;;;;;;;;6289914;28;20036;-83
2023/09/18 14:08:17;;;;;;;0.00;0.00;;;;;;;;;;6298037;28;20048;-84
2023/09/18 14:11:18;;;;;;;0.00;0.00;;;;;;;;;;6304303;28;20019;-84
2023/09/18 14:14:19;;;;;;;0.00;0.00;;;;;;;;;;6289208;28;20036;-84
2023/09/18 14:17:21;;;;;;;0.00;0.00;;;;;;;;;;6283101;28;20462;-83
2023/09/18 14:20:22;;;;;;;0.00;0.00;;;;;;;;;;6292130;28;20048;-83
2023/09/18 14:23:22;;;;;;;0.00;0.00;;;;;;;;;;6266412;28;20417;-83
2023/09/18 14:26:22;;;;;;;0.00;0.00;;;;;;;;;;6295101;28;20098;-83
2023/09/18 14:29:23;;;;;;;0.00;0.00;;;;;;;;;;6295350;28;20029;-84
2023/09/18 14:32:23;;;;;;;0.00;0.00;;;;;;;;;;6290673;28;20024;-83
2023/09/18 14:35:23;;;;;;;0.00;0.00;;;;;;;;;;6275918;28;20151;-85
2023/09/18 14:38:23;;;;;;;0.00;0.00;;;;;;;;;;6281806;28;20021;-84
2023/09/18 14:41:25;;;;;;;0.00;0.00;;;;;;;;;;6282582;28;20033;-84
2023/09/18 14:44:27;;;;;;;0.00;0.00;;;;;;;;;;6295760;28;20498;-85
2023/09/18 14:47:27;;;;;;;0.00;0.00;;;;;;;;;;6274382;28;20075;-83
2023/09/18 14:50:27;;;;;;;;;;;;;;;;;;6298583;28;20458;-85
2023/09/18 14:53:28;;;;;;;0.00;0.00;;;;;;;;;;6306818;28;19912;-84
2023/09/18 14:56:28;;;;;;;;;;;;;;;;;;6297139;28;20076;-84
2023/09/18 14:59:28;;;;;;;0.00;0.00;;;;;;;;;;6296636;28;19919;-84
2023/09/18 15:02:31;;;;;;;;;;;;;;;;;;6279286;28;20077;-84
2023/09/18 15:05:31;;;;;;;0.00;0.00;;;;;;;;;;6299201;28;19908;-86
2023/09/18 15:08:31;;;;;;;;;;;;;;;;;;6306479;28;20075;-85
2023/09/18 15:11:32;;;;;;;0.00;0.00;;;;;;;;;;6301667;28;19904;-84
2023/09/18 15:14:32;;;;;;;;;;;;;;;;;;6305096;28;20532;-85
2023/09/18 15:17:32;;;;;;;0.00;0.00;;;;;;;;;;6295730;28;19916;-85
2023/09/18 15:20:32;;;;;;;;;;;;;;;;;;6263036;28;20040;-85
2023/09/18 15:23:33;;;;;;;0.00;0.00;;;;;;;;;;6314840;28;20278;-85
2023/09/18 15:26:33;;;;;;;0.00;0.00;;;;;;;;;;6303756;28;20025;-85
2023/09/18 15:29:33;;;;;;;0.00;0.00;;;;;;;;;;6296979;28;20497;-86
2023/09/18 15:32:45;;;;;;;0.00;0.00;;;;;;;;;;6285199;28;20028;-86
2023/09/18 15:35:46;;;;;;;0.00;0.00;;;;;;;;;;6265685;28;20035;-85
2023/09/18 15:38:46;;;;;;;0.00;0.00;;;;;;;;;;6285268;28;20430;-85
2023/09/18 15:41:46;;;;;;;0.00;0.00;;;;;;;;;;6300247;28;20271;-85
2023/09/18 15:44:46;;;;;;;0.00;0.00;;;;;;;;;;6275133;28;20020;-83
2023/09/18 15:47:47;;;;;;;0.00;0.00;;;;;;;;;;6287806;28;20135;-85
2023/09/18 15:50:47;;;;;;;0.00;0.00;;;;;;;;;;6290414;28;20097;-88
2023/09/18 15:53:49;;;;;;;0.00;0.00;;;;;;;;;;6284194;28;20286;-88
2023/09/18 15:56:49;;;;;;;0.00;0.00;;;;;;;;;;6286825;28;20474;-83
2023/09/18 15:59:50;;;;;;;0.00;0.00;;;;;;;;;;6270475;28;20181;-83
2023/09/18 16:02:51;;;;;;;0.00;0.00;;;;;;;;;;6292904;28;20032;-82
2023/09/18 16:05:53;;;;;;;0.00;0.00;;;;;;;;;;6280386;28;20085;-82
2023/09/18 16:08:56;;;;;;;0.00;0.00;;;;;;;;;;6251856;28;20498;-84
2023/09/18 16:11:56;;;;;;;0.00;0.00;;;;;;;;;;6267585;28;20056;-83
2023/09/18 16:14:57;;;;;;;0.00;0.00;;;;;;;;;;6237452;28;20029;-83
2023/09/18 16:17:58;;;;;;;0.00;0.00;;;;;;;;;;6264364;28;20101;-83
2023/09/18 16:20:58;;;;;;;0.00;0.00;;;;;;;;;;6263617;28;20048;-83
2023/09/18 16:23:58;;;;;;;0.00;0.00;;;;;;;;;;6267944;28;20053;-83
2023/09/18 16:26:59;;;;;;;0.00;0.00;;;;;;;;;;6268638;28;20478;-83
2023/09/18 16:30:00;;;;;;;0.00;0.00;;;;;;;;;;6270311;28;20128;-82
2023/09/18 16:33:00;;;;;;;0.00;0.00;;;;;;;;;;6243444;28;20044;-83
2023/09/18 16:36:01;;;;;;;0.00;0.00;;;;;;;;;;6245940;28;20516;-83
2023/09/18 16:39:01;;;;;;;0.00;0.00;;;;;;;;;;6260868;28;20049;-84
2023/09/18 16:42:01;;;;;;;0.00;0.00;;;;;;;;;;6256163;28;20502;-84
2023/09/18 16:45:04;;;;;;;0.00;0.00;;;;;;;;;;6269808;28;20082;-84
2023/09/18 16:48:04;;;;;;;0.00;0.00;;;;;;;;;;6246935;28;20104;-83
2023/09/18 16:51:08;;;;;;;0.00;0.00;;;;;;;;;;6261441;28;20418;-83
2023/09/18 16:54:09;;;;;;;0.00;0.00;;;;;;;;;;6266526;28;20035;-83
2023/09/18 16:57:12;;;;;;;0.00;0.00;;;;;;;;;;6263926;28;20048;-86
2023/09/18 17:00:16;;;;;;;0.00;0.00;;;;;;;;;;6265447;28;20471;-87
2023/09/18 17:03:16;;;;;;;0.00;0.00;;;;;;;;;;6269948;28;20028;-87
2023/09/18 17:06:17;;;;;;;0.00;0.00;;;;;;;;;;6262731;28;20052;-84
2023/09/18 17:09:18;;;;;;;0.00;0.00;;;;;;;;;;6287711;28;20068;-84
2023/09/18 17:12:18;;;;;;;0.00;0.00;;;;;;;;;;6271828;28;20024;-83
2023/09/18 17:15:19;;;;;;;0.00;0.00;;;;;;;;;;6282538;28;20143;-83
2023/09/18 17:18:19;;;;;;;0.00;0.00;;;;;;;;;;6273063;28;20486;-83
2023/09/18 17:21:20;;;;;;;0.00;0.00;;;;;;;;;;6276843;28;20017;-83
2023/09/18 17:24:22;;;;;;;0.00;0.00;;;;;;;;;;6276545;28;20025;-84
2023/09/18 17:27:22;;;;;;;0.00;0.00;;;;;;;;;;6257257;28;20531;-85
2023/09/18 17:30:24;;;;;;;0.00;0.00;;;;;;;;;;6285991;28;20035;-84
2023/09/18 17:33:24;;;;;;;0.00;0.00;;;;;;;;;;6273563;28;20049;-83
2023/09/18 17:36:24;;;;;;;0.10;0.10;;;;;;;;;;6277400;28;20025;-83
2023/09/18 17:39:24;;;;;;;0.00;0.00;;;;;;;;;;6273974;28;20024;-83
2023/09/18 17:42:25;;;;;;;0.00;0.00;;;;;;;;;;6282921;28;20016;-83
2023/09/18 17:45:25;;;;;;;0.00;0.00;;;;;;;;;;6275337;28;20091;-83
2023/09/18 17:48:25;;;;;;;0.00;0.00;;;;;;;;;;6263356;28;20060;-84
2023/09/18 17:51:27;;;;;;;0.00;0.00;;;;;;;;;;6266407;28;20063;-84
2023/09/18 17:54:27;;;;;;;0.10;0.10;;;;;;;;;;6278044;28;20094;-84
2023/09/18 17:57:29;;;;;;;0.00;0.00;;;;;;;;;;6266110;28;20478;-84
2023/09/18 18:00:29;;;;;;;0.00;0.00;;;;;;;;;;6281979;28;20402;-85
2023/09/18 18:03:31;;;;;;;0.00;0.00;;;;;;;;;;6263306;28;20071;-84
2023/09/18 18:06:32;;;;;;;0.00;0.00;;;;;;;;;;6280221;28;20083;-86
2023/09/18 18:09:33;;;;;;;;;;;;;;;;;;6271281;28;20052;-86
2023/09/18 18:12:33;;;;;;;0.00;0.00;;;;;;;;;;6281087;28;19909;-86
2023/09/18 18:15:37;;;;;;;0.00;0.00;;;;;;;;;;6281477;28;20020;-84
2023/09/18 18:18:38;;;;;;;0.08;0.08;;;;;;;;;;6265023;28;20126;-86